Time;durP1;ratioP1;P1;durP2;ratioP2;P2;SDS_P1;SDS_P2;PMS_P1;PMS_P2;Temp;Humidity;BMP_temperature;BMP_pressure;BME280_temperature;BME280_humidity;BME280_pressure;Samples;Min_cycle;Max_cycle;Signal;HPM_P1;HPM_P2
2022/09/14 00:01:14;;;;;;;0.50;0.50;;;13.20;99.90;;;;;;5115183;28;20032;-67
2022/09/14 00:03:40;;;;;;;1.05;0.60;;;13.20;99.90;;;;;;5115053;28;20122;-67
2022/09/14 00:06:08;;;;;;;0.77;0.68;;;13.20;99.90;;;;;;5114935;28;20498;-67
2022/09/14 00:08:35;;;;;;;0.80;0.63;;;13.20;99.90;;;;;;5115146;28;20044;-67
2022/09/14 00:11:06;;;;;;;0.88;0.47;;;13.10;99.90;;;;;;5114842;28;20083;-67
2022/09/14 00:13:32;;;;;;;0.57;0.50;;;13.10;99.90;;;;;;5114902;28;20048;-67
2022/09/14 00:16:06;;;;;;;2.72;0.40;;;13.10;99.90;;;;;;5114660;28;20036;-67
2022/09/14 00:18:33;;;;;;;0.50;0.50;;;13.00;99.90;;;;;;5114549;28;20051;-67
2022/09/14 00:21:01;;;;;;;0.60;0.60;;;13.00;99.90;;;;;;5096416;28;20460;-68
2022/09/14 00:23:27;;;;;;;2.88;0.65;;;13.00;99.90;;;;;;5114810;28;20069;-67
2022/09/14 00:25:53;;;;;;;2.25;0.70;;;12.90;99.90;;;;;;5113972;28;20404;-68
2022/09/14 00:28:19;;;;;;;1.83;0.90;;;12.90;99.90;;;;;;5114754;28;20092;-67
2022/09/14 00:30:46;;;;;;;3.70;0.77;;;12.90;99.90;;;;;;5114720;28;20032;-67
2022/09/14 00:33:12;;;;;;;0.85;0.70;;;12.90;99.90;;;;;;5114369;28;20054;-67
2022/09/14 00:35:38;;;;;;;1.10;0.57;;;13.00;99.90;;;;;;5114637;28;20035;-70
2022/09/14 00:38:05;;;;;;;1.67;0.80;;;13.20;99.90;;;;;;5114627;28;20047;-67
2022/09/14 00:40:31;;;;;;;0.85;0.65;;;12.90;99.90;;;;;;5114020;28;20185;-67
2022/09/14 00:42:56;;;;;;;1.13;1.02;;;12.90;99.90;;;;;;5114494;28;20517;-67
2022/09/14 00:45:24;;;;;;;0.57;0.50;;;12.90;99.90;;;;;;5114449;28;20039;-67
2022/09/14 00:47:52;;;;;;;1.17;0.90;;;12.90;99.90;;;;;;5114189;28;20044;-67
2022/09/14 00:50:19;;;;;;;5.93;0.90;;;13.00;99.90;;;;;;5095883;28;20043;-67
2022/09/14 00:52:47;;;;;;;0.88;0.77;;;12.90;99.90;;;;;;5114309;28;20046;-67
2022/09/14 00:55:16;;;;;;;2.45;0.90;;;12.90;99.90;;;;;;5114312;28;20043;-67
2022/09/14 00:57:46;;;;;;;3.00;1.00;;;12.90;99.90;;;;;;5095978;28;20050;-67
2022/09/14 01:00:16;;;;;;;2.88;1.10;;;12.90;99.90;;;;;;5095938;28;20044;-67
2022/09/14 01:02:42;;;;;;;2.85;0.82;;;12.80;99.90;;;;;;5114085;28;20555;-68
2022/09/14 01:05:10;;;;;;;0.85;0.77;;;12.80;99.90;;;;;;5078697;28;20040;-67
2022/09/14 01:07:47;;;;;;;1.92;0.60;;;12.80;99.90;;;;;;5113986;28;20039;-68
2022/09/14 01:10:50;;;;;;;1.42;0.82;;;12.80;99.90;;;;;;5114054;28;20044;-68
2022/09/14 01:13:35;;;;;;;2.33;1.08;;;12.70;99.90;;;;;;5113831;28;20367;-67
2022/09/14 01:16:36;;;;;;;1.75;0.88;;;12.80;99.90;;;;;;5113608;28;20035;-67
2022/09/14 01:19:13;;;;;;;0.85;0.80;;;12.70;99.90;;;;;;5113598;28;20043;-67
2022/09/14 01:21:42;;;;;;;1.00;0.57;;;12.70;99.90;;;;;;5113397;28;20039;-68
2022/09/14 01:24:23;;;;;;;0.70;0.70;;;12.70;99.90;;;;;;5095283;28;20043;-67
2022/09/14 01:26:57;;;;;;;5.47;1.20;;;12.70;99.90;;;;;;5113473;28;20058;-67
2022/09/14 01:29:49;;;;;;;1.13;0.73;;;12.70;99.90;;;;;;5113792;28;20043;-67
2022/09/14 01:32:20;;;;;;;1.05;0.70;;;12.70;99.90;;;;;;5078617;28;20054;-67
2022/09/14 01:34:54;;;;;;;1.70;1.00;;;12.60;99.90;;;;;;5113607;28;20445;-67
2022/09/14 01:37:39;;;;;;;2.28;0.90;;;12.90;99.90;;;;;;5113514;28;20040;-67
2022/09/14 01:40:23;;;;;;;1.77;0.90;;;12.60;99.90;;;;;;5113111;28;20066;-67
2022/09/14 01:42:56;;;;;;;0.85;0.70;;;12.60;99.90;;;;;;5113544;28;20090;-68
2022/09/14 01:45:23;;;;;;;0.70;0.70;;;12.90;99.90;;;;;;5095360;28;20428;-67
2022/09/14 01:47:54;;;;;;;3.58;0.70;;;12.60;99.90;;;;;;5095002;28;20047;-67
2022/09/14 01:50:37;;;;;;;1.10;0.73;;;12.60;99.90;;;;;;5113559;28;20434;-68
2022/09/14 01:53:11;;;;;;;2.53;0.93;;;12.60;99.90;;;;;;5113254;28;20043;-67
2022/09/14 01:56:01;;;;;;;0.80;0.60;;;12.60;99.90;;;;;;5113374;28;20036;-67
2022/09/14 01:58:47;;;;;;;0.82;0.50;;;13.00;99.90;;;;;;5103374;28;20044;-67
2022/09/14 02:01:26;;;;;;;2.50;0.77;;;12.70;99.90;;;;;;5112965;28;20044;-67
2022/09/14 02:03:58;;;;;;;1.90;1.02;;;12.60;99.90;;;;;;5113385;28;20129;-68
2022/09/14 02:06:23;;;;;;;1.27;0.68;;;13.00;99.90;;;;;;5113361;28;20078;-67
2022/09/14 02:08:50;;;;;;;1.00;0.60;;;12.60;99.90;;;;;;5113367;28;20102;-67
2022/09/14 02:11:16;;;;;;;3.10;0.93;;;12.60;99.90;;;;;;5113327;28;20043;-67
2022/09/14 02:13:42;;;;;;;3.05;0.70;;;12.50;99.90;;;;;;5113325;28;20058;-67
2022/09/14 02:16:07;;;;;;;3.70;0.90;;;12.70;99.90;;;;;;5113067;28;20088;-67
2022/09/14 02:18:33;;;;;;;1.15;0.80;;;12.60;99.90;;;;;;5113324;28;20062;-67
2022/09/14 02:21:04;;;;;;;2.00;0.80;;;12.60;99.90;;;;;;5077899;28;20046;-67
2022/09/14 02:23:30;;;;;;;;;;;12.60;99.90;;;;;;5113315;28;20039;-67
2022/09/14 02:25:57;;;;;;;1.85;1.00;;;12.60;99.90;;;;;;5113207;28;20025;-67
2022/09/14 02:28:23;;;;;;;4.43;0.70;;;12.60;99.90;;;;;;5113236;28;20036;-68
2022/09/14 02:31:10;;;;;;;1.25;0.63;;;12.60;99.90;;;;;;5113138;28;20044;-68
2022/09/14 02:33:49;;;;;;;1.10;0.90;;;12.70;99.90;;;;;;5112760;28;20122;-67
2022/09/14 02:36:37;;;;;;;1.52;0.70;;;12.80;99.90;;;;;;5113135;28;20092;-68
2022/09/14 02:39:44;;;;;;;0.50;0.50;;;12.80;99.90;;;;;;5064828;28;20052;-70
2022/09/14 02:42:28;;;;;;;3.90;0.60;;;12.70;99.90;;;;;;5067378;28;20096;-67
2022/09/14 02:45:25;;;;;;;2.10;0.50;;;12.80;99.90;;;;;;5112693;28;20092;-67
2022/09/14 02:48:03;;;;;;;1.73;0.77;;;12.70;99.90;;;;;;5095612;28;20050;-67
2022/09/14 02:50:49;;;;;;;1.08;0.70;;;12.90;99.90;;;;;;5116434;28;20042;-67
2022/09/14 02:53:28;;;;;;;1.88;1.00;;;12.80;99.90;;;;;;5116641;28;20074;-67
2022/09/14 02:56:02;;;;;;;2.33;0.90;;;12.90;99.90;;;;;;5082214;28;20047;-67
2022/09/14 02:58:39;;;;;;;0.70;0.70;;;13.10;99.90;;;;;;5116573;28;20063;-67
2022/09/14 03:01:07;;;;;;;1.08;0.60;;;12.90;99.90;;;;;;5097765;28;20043;-67
2022/09/14 03:03:32;;;;;;;1.02;0.82;;;12.90;99.90;;;;;;5116431;28;20110;-67
2022/09/14 03:05:58;;;;;;;1.77;1.00;;;12.90;99.90;;;;;;5116354;28;20074;-67
2022/09/14 03:08:25;;;;;;;1.15;0.80;;;13.40;99.90;;;;;;5116096;28;20035;-67
2022/09/14 03:10:51;;;;;;;1.40;0.90;;;13.00;99.90;;;;;;5116225;28;20439;-67
2022/09/14 03:13:17;;;;;;;1.05;0.60;;;12.90;99.90;;;;;;5097559;28;20039;-67
2022/09/14 03:15:43;;;;;;;2.08;0.90;;;13.00;99.90;;;;;;5116025;28;20071;-67
2022/09/14 03:18:08;;;;;;;2.97;0.90;;;13.00;99.90;;;;;;5097834;28;20101;-67
2022/09/14 03:20:34;;;;;;;1.00;0.68;;;13.00;99.90;;;;;;5115619;28;20043;-67
2022/09/14 03:23:01;;;;;;;2.28;0.65;;;13.30;99.90;;;;;;5116044;28;20031;-67
2022/09/14 03:25:27;;;;;;;3.00;0.88;;;13.00;99.90;;;;;;5116026;28;20038;-68
2022/09/14 03:27:57;;;;;;;2.25;1.20;;;13.00;99.90;;;;;;5116320;28;20153;-67
2022/09/14 03:30:23;;;;;;;0.98;0.82;;;13.30;99.90;;;;;;5097768;28;20542;-67
2022/09/14 03:32:49;;;;;;;1.30;0.90;;;13.00;99.90;;;;;;5115871;28;20039;-67
2022/09/14 03:35:15;;;;;;;0.75;0.63;;;13.00;99.90;;;;;;5115835;28;20043;-68
2022/09/14 03:37:42;;;;;;;3.55;0.90;;;13.00;99.90;;;;;;5116122;28;20134;-69
2022/09/14 03:40:09;;;;;;;1.05;0.80;;;13.50;99.90;;;;;;5115387;28;20044;-67
2022/09/14 03:42:35;;;;;;;3.10;0.98;;;13.10;99.90;;;;;;5115716;28;20050;-68
2022/09/14 03:45:01;;;;;;;1.65;1.05;;;13.10;99.90;;;;;;5115625;28;20485;-67
2022/09/14 03:47:27;;;;;;;0.82;0.80;;;13.40;99.90;;;;;;5115610;28;20078;-67
2022/09/14 03:49:53;;;;;;;1.40;0.90;;;13.20;99.90;;;;;;5115568;28;20067;-67
2022/09/14 03:52:19;;;;;;;1.50;0.88;;;13.10;99.90;;;;;;5115470;28;20043;-67
2022/09/14 03:54:45;;;;;;;2.13;1.10;;;13.20;99.90;;;;;;5115297;28;20379;-67
2022/09/14 03:57:10;;;;;;;1.52;0.88;;;13.20;99.90;;;;;;5115417;28;20039;-68
2022/09/14 03:59:36;;;;;;;1.25;0.77;;;13.20;99.90;;;;;;5115288;28;20042;-68
2022/09/14 04:02:03;;;;;;;3.08;0.98;;;13.20;99.90;;;;;;5115234;28;20048;-68
2022/09/14 04:04:28;;;;;;;1.67;1.20;;;13.20;99.90;;;;;;5115039;28;20141;-67
2022/09/14 04:06:54;;;;;;;5.22;1.10;;;13.20;99.90;;;;;;5115200;28;20478;-67
2022/09/14 04:09:20;;;;;;;3.85;1.13;;;13.30;99.90;;;;;;5097022;28;20032;-67
2022/09/14 04:11:46;;;;;;;1.85;0.90;;;13.30;99.90;;;;;;5114816;28;20440;-67
2022/09/14 04:14:12;;;;;;;1.88;0.88;;;13.20;99.90;;;;;;5115043;28;20054;-67
2022/09/14 04:16:39;;;;;;;1.15;0.90;;;13.30;99.90;;;;;;5115047;28;20051;-67
2022/09/14 04:19:05;;;;;;;1.38;0.95;;;13.30;99.90;;;;;;5114940;28;20085;-67
2022/09/14 04:21:31;;;;;;;1.20;0.85;;;13.30;99.90;;;;;;5096402;28;20043;-67
2022/09/14 04:23:58;;;;;;;1.65;1.17;;;13.30;99.90;;;;;;5114949;28;20379;-68
2022/09/14 04:26:26;;;;;;;1.33;0.80;;;13.30;99.90;;;;;;5114881;28;20035;-67
2022/09/14 04:28:52;;;;;;;1.13;0.75;;;13.30;99.90;;;;;;5114400;28;20109;-66
2022/09/14 04:31:18;;;;;;;1.83;0.88;;;13.30;99.90;;;;;;5096145;28;20076;-67
2022/09/14 04:33:44;;;;;;;1.80;0.82;;;13.30;99.90;;;;;;5114345;28;20067;-67
2022/09/14 04:36:12;;;;;;;0.98;0.82;;;13.30;99.90;;;;;;5114736;28;20112;-68
2022/09/14 04:38:39;;;;;;;1.95;1.02;;;13.40;99.90;;;;;;5096092;28;20051;-67
2022/09/14 04:41:13;;;;;;;3.35;1.08;;;13.40;99.90;;;;;;5114151;28;20087;-67
2022/09/14 04:43:40;;;;;;;1.73;1.00;;;13.40;99.90;;;;;;5114502;28;20046;-68
2022/09/14 04:46:10;;;;;;;1.08;0.82;;;13.40;99.90;;;;;;5114019;28;20075;-67
2022/09/14 04:48:36;;;;;;;1.20;0.90;;;13.40;99.90;;;;;;5114038;28;20046;-67
2022/09/14 04:51:03;;;;;;;2.70;0.77;;;13.40;99.90;;;;;;5096079;28;20055;-67
2022/09/14 04:53:29;;;;;;;2.28;1.00;;;13.40;99.90;;;;;;5114272;28;20457;-67
2022/09/14 04:56:02;;;;;;;0.88;0.85;;;13.40;99.90;;;;;;5095966;28;20040;-67
2022/09/14 04:58:28;;;;;;;1.52;0.85;;;13.40;99.90;;;;;;5114219;28;20040;-67
2022/09/14 05:00:59;;;;;;;3.28;1.17;;;13.40;99.90;;;;;;5095933;28;20051;-67
2022/09/14 05:03:25;;;;;;;1.20;0.75;;;13.40;99.90;;;;;;5114069;28;20050;-67
2022/09/14 05:05:51;;;;;;;3.38;0.90;;;13.50;99.90;;;;;;5095876;28;20051;-67
2022/09/14 05:08:16;;;;;;;1.35;1.05;;;13.50;99.90;;;;;;5114071;28;20114;-67
2022/09/14 05:10:42;;;;;;;1.30;0.80;;;13.50;99.90;;;;;;5113498;28;20039;-68
2022/09/14 05:13:08;;;;;;;1.75;0.80;;;13.50;99.90;;;;;;5113983;28;20526;-68
2022/09/14 05:15:33;;;;;;;4.55;0.70;;;13.60;99.90;;;;;;5113798;28;20497;-67
2022/09/14 05:17:59;;;;;;;1.42;0.82;;;13.50;99.90;;;;;;5095459;28;20054;-69
2022/09/14 05:20:25;;;;;;;1.50;0.90;;;13.60;99.90;;;;;;5113384;28;20032;-67
2022/09/14 05:22:50;;;;;;;1.33;0.90;;;13.60;99.90;;;;;;5095694;28;20036;-68
2022/09/14 05:25:16;;;;;;;1.92;1.00;;;13.60;99.90;;;;;;5095631;28;20364;-68
2022/09/14 05:27:42;;;;;;;0.82;0.70;;;13.80;99.90;;;;;;5113711;28;20047;-69
2022/09/14 05:30:08;;;;;;;1.33;0.45;;;13.60;99.90;;;;;;5095578;28;20525;-66
2022/09/14 05:32:34;;;;;;;1.85;0.80;;;13.70;99.90;;;;;;5113347;28;20127;-67
2022/09/14 05:34:59;;;;;;;0.90;0.75;;;13.70;99.90;;;;;;5113618;28;20072;-66
2022/09/14 05:37:25;;;;;;;1.55;0.80;;;13.80;99.90;;;;;;5113684;28;20040;-67
2022/09/14 05:39:52;;;;;;;2.22;0.70;;;13.80;99.90;;;;;;5113619;28;20390;-67
2022/09/14 05:42:17;;;;;;;2.22;1.00;;;13.80;99.90;;;;;;5109138;28;20044;-66
2022/09/14 05:44:43;;;;;;;1.40;0.75;;;13.70;99.90;;;;;;5113105;28;20036;-69
2022/09/14 05:47:09;;;;;;;2.55;0.93;;;;;;;;;;5095079;28;20123;-69
2022/09/14 05:49:35;;;;;;;0.63;0.50;;;14.20;99.90;;;;;;5113497;28;20125;-67
2022/09/14 05:52:01;;;;;;;3.95;0.82;;;14.10;99.90;;;;;;5113485;28;20239;-68
2022/09/14 05:54:27;;;;;;;1.70;0.82;;;13.90;99.90;;;;;;5113100;28;20054;-66
2022/09/14 05:56:52;;;;;;;1.13;0.73;;;14.00;99.90;;;;;;5113413;28;20038;-68
2022/09/14 05:59:18;;;;;;;0.40;0.40;;;14.20;99.90;;;;;;5113478;28;20042;-69
2022/09/14 06:01:44;;;;;;;1.63;0.80;;;;;;;;;;5113332;28;20521;-69
2022/09/14 06:04:10;;;;;;;1.35;0.80;;;14.10;99.90;;;;;;5095125;28;20031;-67
2022/09/14 06:06:36;;;;;;;2.70;0.70;;;14.10;99.90;;;;;;5113393;28;20032;-67
2022/09/14 06:09:02;;;;;;;0.88;0.70;;;14.00;99.90;;;;;;5113255;28;20097;-66
2022/09/14 06:11:31;;;;;;;1.05;0.77;;;14.10;99.90;;;;;;5113339;28;20088;-67
2022/09/14 06:13:58;;;;;;;0.95;0.80;;;14.10;99.90;;;;;;5112906;28;20079;-67
2022/09/14 06:16:26;;;;;;;1.15;0.75;;;14.30;99.90;;;;;;5113330;28;20122;-66
2022/09/14 06:18:54;;;;;;;0.73;0.60;;;14.10;99.90;;;;;;5113218;28;20043;-66
2022/09/14 06:21:21;;;;;;;1.70;0.55;;;;;;;;;;5113221;28;20036;-66
2022/09/14 06:23:47;;;;;;;1.25;0.77;;;14.40;99.90;;;;;;5115342;28;20047;-65
2022/09/14 06:26:14;;;;;;;2.20;1.20;;;14.30;99.90;;;;;;5117170;28;20397;-65
2022/09/14 06:28:39;;;;;;;4.00;0.90;;;14.90;99.90;;;;;;5117045;28;20086;-66
2022/09/14 06:31:06;;;;;;;1.35;0.82;;;14.60;99.90;;;;;;5116710;28;20075;-66
2022/09/14 06:33:33;;;;;;;1.13;0.75;;;14.50;99.90;;;;;;5116917;28;20105;-66
2022/09/14 06:36:00;;;;;;;2.60;0.85;;;;;;;;;;5116669;28;20119;-66
2022/09/14 06:38:27;;;;;;;1.70;0.70;;;14.90;99.90;;;;;;5098954;28;20035;-66
2022/09/14 06:40:58;;;;;;;3.80;0.70;;;;;;;;;;5116234;28;20052;-67
2022/09/14 06:43:26;;;;;;;0.70;0.70;;;14.70;99.90;;;;;;5116648;28;20044;-67
2022/09/14 06:46:04;;;;;;;1.75;0.60;;;14.80;99.90;;;;;;5116301;28;20047;-67
2022/09/14 06:48:33;;;;;;;0.57;0.57;;;14.90;99.90;;;;;;5116256;28;20042;-67
2022/09/14 06:51:00;;;;;;;1.50;0.90;;;15.00;99.90;;;;;;5116647;28;20048;-68
2022/09/14 06:53:25;;;;;;;2.67;0.85;;;15.00;99.90;;;;;;5097919;28;20043;-67
2022/09/14 06:55:51;;;;;;;1.67;0.93;;;15.10;99.90;;;;;;5116447;28;20062;-67
2022/09/14 06:58:17;;;;;;;0.90;0.60;;;15.20;99.90;;;;;;5116499;28;20046;-68
2022/09/14 07:00:43;;;;;;;3.95;0.93;;;15.20;99.90;;;;;;5116278;28;20172;-66
2022/09/14 07:03:09;;;;;;;2.70;0.77;;;15.30;99.90;;;;;;5115877;28;20049;-67
2022/09/14 07:05:34;;;;;;;0.65;0.50;;;15.30;99.90;;;;;;5116215;28;20032;-67
2022/09/14 07:08:00;;;;;;;4.53;1.30;;;15.40;99.90;;;;;;5116255;28;20040;-67
2022/09/14 07:10:27;;;;;;;8.20;2.03;;;15.40;99.90;;;;;;5116282;28;20039;-69
2022/09/14 07:12:58;;;;;;;0.68;0.50;;;15.50;99.90;;;;;;5097453;28;20056;-68
2022/09/14 07:15:24;;;;;;;2.63;0.60;;;15.50;99.90;;;;;;5115763;28;20043;-67
2022/09/14 07:17:50;;;;;;;2.78;1.35;;;;;;;;;;5115958;28;20047;-67
2022/09/14 07:20:17;;;;;;;0.90;0.68;;;;;;;;;;5115876;28;20042;-67
2022/09/14 07:22:44;;;;;;;1.77;0.80;;;;;;;;;;5115977;28;20044;-69
2022/09/14 07:25:10;;;;;;;2.80;0.77;;;;;;;;;;5115975;28;20039;-68
2022/09/14 07:27:38;;;;;;;1.20;0.60;;;15.90;99.90;;;;;;5115979;28;20031;-67
2022/09/14 07:30:05;;;;;;;1.58;0.77;;;;;;;;;;5115781;28;20046;-67
2022/09/14 07:32:31;;;;;;;1.13;0.70;;;;;;;;;;5115692;28;20040;-67
2022/09/14 07:34:57;;;;;;;0.43;0.43;;;;;;;;;;5096837;28;20181;-67
2022/09/14 07:37:23;;;;;;;0.60;0.60;;;;;;;;;;5115817;28;20040;-68
2022/09/14 07:39:49;;;;;;;1.05;0.60;;;;;;;;;;5115788;28;20383;-68
2022/09/14 07:42:15;;;;;;;0.57;0.50;;;;;;;;;;5115557;28;20494;-68
2022/09/14 07:44:41;;;;;;;1.45;0.63;;;;;;;;;;5097402;28;20119;-68
2022/09/14 07:47:07;;;;;;;0.52;0.50;;;;;;;;;;5115285;28;20035;-67
2022/09/14 07:49:33;;;;;;;3.15;0.80;;;;;;;;;;5115250;28;20043;-68
2022/09/14 07:51:59;;;;;;;3.53;0.52;;;;;;;;;;5115330;28;20540;-68
2022/09/14 07:54:26;;;;;;;0.77;0.43;;;;;;;;;;5097218;28;20048;-68
2022/09/14 07:56:52;;;;;;;2.05;0.50;;;;;;;;;;5115470;28;20044;-68
2022/09/14 07:59:18;;;;;;;0.50;0.30;;;;;;;;;;5115431;28;20040;-67
2022/09/14 08:01:45;;;;;;;3.50;0.77;;;;;;;;;;5115191;28;20046;-67
2022/09/14 08:04:11;;;;;;;0.43;0.40;;;;;;;;;;5115234;28;20039;-68
2022/09/14 08:06:39;;;;;;;0.47;0.30;;;;;;;;;;5114932;28;20036;-67
2022/09/14 08:09:09;;;;;;;0.50;0.35;;;;;;;;;;5115207;28;20043;-67
2022/09/14 08:11:35;;;;;;;0.40;0.37;;;;;;;;;;5114776;28;20039;-67
2022/09/14 08:14:04;;;;;;;0.60;0.45;;;;;;;;;;5114626;28;20039;-67
2022/09/14 08:16:31;;;;;;;0.32;0.30;;;;;;;;;;5114727;28;20040;-67
2022/09/14 08:18:58;;;;;;;0.45;0.40;;;;;;;;;;5114893;28;20043;-67
2022/09/14 08:21:24;;;;;;;0.80;0.40;;;;;;;;;;5114810;28;20085;-67
2022/09/14 08:23:51;;;;;;;0.40;0.22;;;;;;;;;;5114877;28;20427;-67
2022/09/14 08:26:18;;;;;;;0.43;0.40;;;;;;;;;;5114811;28;20075;-67
2022/09/14 08:28:45;;;;;;;3.85;0.38;;;;;;;;;;5115036;28;20462;-67
2022/09/14 08:31:15;;;;;;;0.30;0.10;;;;;;;;;;5114456;28;20096;-67
2022/09/14 08:33:43;;;;;;;1.08;0.30;;;;;;;;;;5114718;28;20046;-67
2022/09/14 08:36:10;;;;;;;0.95;0.30;;;;;;;;;;5114635;28;20520;-68
2022/09/14 08:38:36;;;;;;;0.68;0.38;;;;;;;;;;5114559;28;20043;-67
2022/09/14 08:41:25;;;;;;;1.65;0.40;;;;;;;;;;5113916;28;20060;-67
2022/09/14 08:43:52;;;;;;;0.80;0.40;;;;;;;;;;5076448;28;20044;-68
2022/09/14 08:46:27;;;;;;;0.38;0.20;;;;;;;;;;5113452;28;20043;-67
2022/09/14 08:48:53;;;;;;;0.60;0.32;;;;;;;;;;5114012;28;20039;-67
2022/09/14 08:51:19;;;;;;;0.68;0.30;;;;;;;;;;5114158;28;20039;-68
2022/09/14 08:53:45;;;;;;;0.75;0.43;;;;;;;;;;5095675;28;20126;-68
2022/09/14 08:56:14;;;;;;;0.40;0.30;;;;;;;;;;5114305;28;20110;-67
2022/09/14 08:58:57;;;;;;;1.88;0.57;;;;;;;;;;5114161;28;20043;-67
2022/09/14 09:01:41;;;;;;;0.82;0.40;;;;;;;;;;5114108;28;20053;-67
2022/09/14 09:04:10;;;;;;;1.25;0.30;;;;;;;;;;5114112;28;20040;-68
2022/09/14 09:06:46;;;;;;;1.55;0.30;;;;;;;;;;5113973;28;20169;-67
2022/09/14 09:09:31;;;;;;;0.95;0.40;;;;;;;;;;5114073;28;20095;-67
2022/09/14 09:11:57;;;;;;;0.45;0.17;;;;;;;;;;5095785;28;20046;-67
2022/09/14 09:14:28;;;;;;;0.88;0.30;;;;;;;;;;5113567;28;20039;-67
2022/09/14 09:16:55;;;;;;;1.17;0.40;;;;;;;;;;5095344;28;20172;-66
2022/09/14 09:19:26;;;;;;;0.77;0.22;;;;;;;;;;5113961;28;20367;-67
2022/09/14 09:21:52;;;;;;;;;;;;;;;;;;5113825;28;20039;-67
2022/09/14 09:24:27;;;;;;;1.55;0.32;;;;;;;;;;5113727;28;19922;-67
2022/09/14 09:26:53;;;;;;;0.55;0.30;;;;;;;;;;5113790;28;20027;-67
2022/09/14 09:29:20;;;;;;;1.15;0.30;;;;;;;;;;5095404;28;20491;-67
2022/09/14 09:31:48;;;;;;;0.65;0.20;;;;;;;;;;5113729;28;20040;-67
2022/09/14 09:34:15;;;;;;;0.85;0.40;;;;;;;;;;5113272;28;20118;-67
2022/09/14 09:36:44;;;;;;;1.00;0.30;;;;;;;;;;5095070;28;20046;-67
2022/09/14 09:39:11;;;;;;;1.50;0.38;;;;;;;;;;5113634;28;20040;-67
2022/09/14 09:42:06;;;;;;;0.43;0.28;;;;;;;;;;5113157;28;20051;-67
2022/09/14 09:44:51;;;;;;;3.60;0.40;;;;;;;;;;5096304;28;20073;-68
2022/09/14 09:47:34;;;;;;;1.65;0.40;;;19.10;80.20;;;;;;5113292;28;20065;-67
2022/09/14 09:50:19;;;;;;;0.10;0.10;;;19.00;85.00;;;;;;5113463;28;20046;-67
2022/09/14 09:52:58;;;;;;;1.17;0.55;;;19.10;79.50;;;;;;5113582;28;20367;-67
2022/09/14 09:55:37;;;;;;;2.72;0.60;;;19.00;76.60;;;;;;5113464;28;20070;-68
2022/09/14 09:58:25;;;;;;;0.95;0.20;;;19.00;79.00;;;;;;5116236;28;20046;-67
2022/09/14 10:01:03;;;;;;;2.53;0.82;;;19.00;77.10;;;;;;5117603;28;20603;-67
2022/09/14 10:03:37;;;;;;;1.52;0.40;;;19.10;77.90;;;;;;5082216;28;20039;-67
2022/09/14 10:06:06;;;;;;;1.08;0.40;;;19.10;71.10;;;;;;5117877;28;20032;-68
2022/09/14 10:08:38;;;;;;;2.05;0.55;;;19.10;74.10;;;;;;5117392;28;20043;-67
2022/09/14 10:11:04;;;;;;;1.38;0.35;;;19.10;73.20;;;;;;5117460;28;20043;-67
2022/09/14 10:13:39;;;;;;;0.90;0.30;;;19.20;76.30;;;;;;5117126;28;20154;-67
2022/09/14 10:16:15;;;;;;;2.08;0.28;;;19.20;73.90;;;;;;5117389;28;20039;-67
2022/09/14 10:18:43;;;;;;;0.57;0.40;;;19.10;53.80;;;;;;5098678;28;20143;-67
2022/09/14 10:21:09;;;;;;;1.02;0.30;;;19.00;66.10;;;;;;5117169;28;20038;-67
2022/09/14 10:23:37;;;;;;;0.65;0.40;;;19.10;68.30;;;;;;5116948;28;20040;-68
2022/09/14 10:26:14;;;;;;;1.30;0.30;;;19.10;63.90;;;;;;5116884;28;20039;-67
2022/09/14 10:28:46;;;;;;;0.85;0.35;;;19.10;72.10;;;;;;5116677;28;20089;-67
2022/09/14 10:31:17;;;;;;;0.30;0.30;;;19.10;71.80;;;;;;5116803;28;20083;-67
2022/09/14 10:33:53;;;;;;;0.22;0.20;;;19.00;67.90;;;;;;5116749;28;20047;-67
2022/09/14 10:36:28;;;;;;;2.25;0.40;;;18.90;61.30;;;;;;5117042;28;20047;-67
2022/09/14 10:38:57;;;;;;;1.85;0.30;;;18.90;71.90;;;;;;5098587;28;20054;-67
2022/09/14 10:41:44;;;;;;;0.68;0.30;;;18.90;71.20;;;;;;5116362;28;20056;-67
2022/09/14 10:44:44;;;;;;;1.27;0.50;;;18.90;63.10;;;;;;5098448;28;20508;-67
2022/09/14 10:47:40;;;;;;;0.60;0.20;;;19.10;62.60;;;;;;5116838;28;20501;-67
2022/09/14 10:50:26;;;;;;;2.03;0.43;;;19.10;54.50;;;;;;5116323;28;20067;-68
2022/09/14 10:53:17;;;;;;;0.98;0.20;;;19.20;56.90;;;;;;5116620;28;20038;-68
2022/09/14 10:56:09;;;;;;;2.17;0.47;;;19.30;51.10;;;;;;5097997;28;20043;-67
2022/09/14 10:58:58;;;;;;;1.88;0.35;;;19.50;46.00;;;;;;5116068;28;20040;-68
2022/09/14 11:01:46;;;;;;;0.82;0.40;;;19.70;60.70;;;;;;5097969;28;20044;-68
2022/09/14 11:04:12;;;;;;;0.57;0.30;;;20.00;64.00;;;;;;5116406;28;20402;-68
2022/09/14 11:06:45;;;;;;;0.73;0.20;;;;;;;;;;5116075;28;20118;-68
2022/09/14 11:09:19;;;;;;;0.75;0.25;;;20.60;48.70;;;;;;5115248;28;20042;-68
2022/09/14 11:11:53;;;;;;;0.20;0.20;;;20.80;32.60;;;;;;5116229;28;20048;-67
2022/09/14 11:14:47;;;;;;;1.85;0.50;;;20.90;35.70;;;;;;5097698;28;20077;-66
2022/09/14 11:17:32;;;;;;;0.85;0.47;;;20.80;27.80;;;;;;5116193;28;20043;-68
2022/09/14 11:20:24;;;;;;;2.28;0.30;;;20.70;31.20;;;;;;5115817;28;20086;-67
2022/09/14 11:23:18;;;;;;;4.07;0.40;;;20.60;29.30;;;;;;5115736;28;20056;-68
2022/09/14 11:26:13;;;;;;;0.70;0.40;;;20.50;36.80;;;;;;5115345;28;20040;-67
2022/09/14 11:29:19;;;;;;;1.25;0.50;;;20.50;21.00;;;;;;5115746;28;20074;-69
2022/09/14 11:31:59;;;;;;;0.17;0.17;;;20.50;13.50;;;;;;5049267;28;20048;-68
2022/09/14 11:34:46;;;;;;;0.52;0.28;;;20.30;25.00;;;;;;5097103;28;20157;-68
2022/09/14 11:37:15;;;;;;;1.20;0.22;;;20.20;22.70;;;;;;5115709;28;20039;-67
2022/09/14 11:39:57;;;;;;;1.88;0.35;;;20.20;26.80;;;;;;5097252;28;20487;-69
2022/09/14 11:42:32;;;;;;;1.17;0.40;;;20.10;28.70;;;;;;5096754;28;20052;-67
2022/09/14 11:45:22;;;;;;;0.93;0.30;;;20.00;25.90;;;;;;5097340;28;20048;-67
2022/09/14 11:48:00;;;;;;;1.92;0.60;;;19.90;20.60;;;;;;5097143;28;20497;-68
2022/09/14 11:50:29;;;;;;;1.60;0.30;;;19.90;28.60;;;;;;5096926;28;20092;-68
2022/09/14 11:53:10;;;;;;;1.48;0.20;;;19.80;36.10;;;;;;5115379;28;20114;-67
2022/09/14 11:55:42;;;;;;;0.45;0.20;;;19.80;33.00;;;;;;5115131;28;20039;-68
2022/09/14 11:58:28;;;;;;;3.05;0.20;;;19.80;33.00;;;;;;5115360;28;20032;-69
2022/09/14 12:01:24;;;;;;;1.10;0.40;;;19.80;39.00;;;;;;5096535;28;20047;-68
2022/09/14 12:04:03;;;;;;;1.52;0.20;;;19.70;36.30;;;;;;5096993;28;20475;-68
2022/09/14 12:06:29;;;;;;;1.63;0.30;;;19.70;42.20;;;;;;5096668;28;20040;-68
2022/09/14 12:09:19;;;;;;;2.17;0.52;;;19.60;39.20;;;;;;5096633;28;20048;-68
2022/09/14 12:11:48;;;;;;;;;;;19.70;49.50;;;;;;5088597;28;20462;-67
2022/09/14 12:14:34;;;;;;;1.73;0.40;;;19.70;46.00;;;;;;5114732;28;20010;-67
2022/09/14 12:17:14;;;;;;;2.38;0.35;;;19.80;30.10;;;;;;5096569;28;20073;-67
2022/09/14 12:19:41;;;;;;;0.65;0.30;;;20.00;40.10;;;;;;5114428;28;20082;-67
2022/09/14 12:22:36;;;;;;;1.35;0.40;;;19.90;33.90;;;;;;5114068;28;20048;-66
2022/09/14 12:25:08;;;;;;;0.10;0.10;;;19.90;40.90;;;;;;5114871;28;20035;-64
2022/09/14 12:27:38;;;;;;;1.17;0.40;;;19.90;41.40;;;;;;5114408;28;20043;-67
2022/09/14 12:30:23;;;;;;;;;;;19.90;42.60;;;;;;5096826;28;20044;-65
2022/09/14 12:32:48;;;;;;;0.20;0.20;;;19.70;32.30;;;;;;5114601;28;19922;-67
2022/09/14 12:35:33;;;;;;;2.10;0.40;;;19.70;40.10;;;;;;5114156;28;20407;-67
2022/09/14 12:38:19;;;;;;;0.40;0.20;;;19.60;45.00;;;;;;5096349;28;20402;-69
2022/09/14 12:40:45;;;;;;;0.25;0.22;;;19.60;44.10;;;;;;5113867;28;20052;-67
2022/09/14 12:43:36;;;;;;;2.10;0.30;;;19.50;48.60;;;;;;5095846;28;20563;-67
2022/09/14 12:46:21;;;;;;;0.93;0.30;;;19.60;48.10;;;;;;5114307;28;20540;-68
2022/09/14 12:48:51;;;;;;;1.00;0.32;;;19.60;45.40;;;;;;5114189;28;20035;-67
2022/09/14 12:51:26;;;;;;;0.95;0.20;;;19.70;50.30;;;;;;5096021;28;20056;-67
2022/09/14 12:54:00;;;;;;;1.45;0.40;;;19.90;43.00;;;;;;5096128;28;20055;-67
2022/09/14 12:56:28;;;;;;;1.52;0.22;;;19.90;39.60;;;;;;5113882;28;20047;-67
2022/09/14 12:59:12;;;;;;;1.65;0.40;;;19.90;44.20;;;;;;5113744;28;20035;-66
2022/09/14 13:01:51;;;;;;;0.47;0.30;;;20.00;47.80;;;;;;5114042;28;20039;-67
2022/09/14 13:04:38;;;;;;;0.47;0.30;;;20.10;46.10;;;;;;5114002;28;20032;-67
2022/09/14 13:07:11;;;;;;;0.63;0.20;;;20.10;42.30;;;;;;5113979;28;20035;-67
2022/09/14 13:09:37;;;;;;;0.88;0.35;;;20.10;38.10;;;;;;5113913;28;20054;-67
2022/09/14 13:12:09;;;;;;;1.27;0.20;;;20.00;39.40;;;;;;5078449;28;20048;-67
2022/09/14 13:14:52;;;;;;;0.22;0.20;;;20.30;47.70;;;;;;5113825;28;20039;-67
2022/09/14 13:17:18;;;;;;;1.17;0.30;;;20.30;32.30;;;;;;5095503;28;20035;-67
2022/09/14 13:20:03;;;;;;;0.60;0.30;;;20.40;36.00;;;;;;5113686;28;20042;-67
2022/09/14 13:22:30;;;;;;;3.38;0.40;;;20.60;41.20;;;;;;5113623;28;20382;-67
2022/09/14 13:25:02;;;;;;;0.90;0.30;;;20.90;21.80;;;;;;5113370;28;20047;-67
2022/09/14 13:27:30;;;;;;;0.80;0.57;;;;;;;;;;5113680;28;20032;-67
2022/09/14 13:30:20;;;;;;;0.70;0.43;;;21.50;2.00;;;;;;5113571;28;20036;-67
2022/09/14 13:32:49;;;;;;;0.40;0.20;;;21.60;1.00;;;;;;5112921;28;20094;-67
2022/09/14 13:35:37;;;;;;;1.65;0.60;;;21.60;1.00;;;;;;5095244;28;20048;-67